sensor_id;sensor_type;location;lat;lon;timestamp;P1;durP1;ratioP1;P2;durP2;ratioP2
33104;SDS011;19476;51.448;6.674;2023-02-28T00:00:21;4.45;;;2.00;;
33104;SDS011;19476;51.448;6.674;2023-02-28T00:02:47;4.05;;;1.88;;
33104;SDS011;19476;51.448;6.674;2023-02-28T00:05:14;3.45;;;2.05;;
33104;SDS011;19476;51.448;6.674;2023-02-28T00:07:42;3.97;;;1.90;;
33104;SDS011;19476;51.448;6.674;2023-02-28T00:10:09;4.18;;;2.20;;
33104;SDS011;19476;51.448;6.674;2023-02-28T00:12:37;3.40;;;2.03;;
33104;SDS011;19476;51.448;6.674;2023-02-28T00:15:07;4.72;;;2.20;;
33104;SDS011;19476;51.448;6.674;2023-02-28T00:17:34;5.72;;;2.58;;
33104;SDS011;19476;51.448;6.674;2023-02-28T00:20:00;6.10;;;2.15;;
33104;SDS011;19476;51.448;6.674;2023-02-28T00:22:40;3.97;;;2.42;;
33104;SDS011;19476;51.448;6.674;2023-02-28T00:25:08;4.78;;;2.03;;
33104;SDS011;19476;51.448;6.674;2023-02-28T00:27:36;9.55;;;2.30;;
33104;SDS011;19476;51.448;6.674;2023-02-28T00:30:03;3.90;;;2.08;;
33104;SDS011;19476;51.448;6.674;2023-02-28T00:32:30;4.70;;;2.20;;
33104;SDS011;19476;51.448;6.674;2023-02-28T00:34:56;6.38;;;2.17;;
33104;SDS011;19476;51.448;6.674;2023-02-28T00:37:21;4.65;;;2.13;;
33104;SDS011;19476;51.448;6.674;2023-02-28T00:39:47;4.18;;;2.03;;
33104;SDS011;19476;51.448;6.674;2023-02-28T00:42:13;4.63;;;2.45;;
33104;SDS011;19476;51.448;6.674;2023-02-28T00:44:39;4.93;;;1.92;;
33104;SDS011;19476;51.448;6.674;2023-02-28T00:47:05;5.13;;;2.03;;
33104;SDS011;19476;51.448;6.674;2023-02-28T00:49:30;5.32;;;2.50;;
33104;SDS011;19476;51.448;6.674;2023-02-28T00:51:56;4.85;;;2.50;;
33104;SDS011;19476;51.448;6.674;2023-02-28T00:54:22;4.47;;;2.20;;
33104;SDS011;19476;51.448;6.674;2023-02-28T00:56:49;3.33;;;1.92;;
33104;SDS011;19476;51.448;6.674;2023-02-28T00:59:15;4.47;;;2.03;;
33104;SDS011;19476;51.448;6.674;2023-02-28T01:01:42;4.45;;;2.60;;
33104;SDS011;19476;51.448;6.674;2023-02-28T01:04:09;4.90;;;2.22;;
33104;SDS011;19476;51.448;6.674;2023-02-28T01:06:35;5.22;;;2.20;;
33104;SDS011;19476;51.448;6.674;2023-02-28T01:09:02;5.50;;;2.15;;
33104;SDS011;19476;51.448;6.674;2023-02-28T01:11:29;3.50;;;1.80;;
33104;SDS011;19476;51.448;6.674;2023-02-28T01:13:54;5.68;;;2.30;;
33104;SDS011;19476;51.448;6.674;2023-02-28T01:16:21;4.03;;;1.90;;
33104;SDS011;19476;51.448;6.674;2023-02-28T01:18:47;4.05;;;1.85;;
33104;SDS011;19476;51.448;6.674;2023-02-28T01:21:14;3.90;;;2.00;;
33104;SDS011;19476;51.448;6.674;2023-02-28T01:23:41;4.75;;;1.90;;
33104;SDS011;19476;51.448;6.674;2023-02-28T01:26:08;3.30;;;1.80;;
33104;SDS011;19476;51.448;6.674;2023-02-28T01:28:36;4.47;;;1.80;;
33104;SDS011;19476;51.448;6.674;2023-02-28T01:31:02;4.57;;;1.70;;
33104;SDS011;19476;51.448;6.674;2023-02-28T01:33:28;3.70;;;1.63;;
33104;SDS011;19476;51.448;6.674;2023-02-28T01:36:04;4.53;;;2.05;;
33104;SDS011;19476;51.448;6.674;2023-02-28T01:38:49;4.40;;;1.65;;
33104;SDS011;19476;51.448;6.674;2023-02-28T01:41:23;3.95;;;1.60;;
33104;SDS011;19476;51.448;6.674;2023-02-28T01:46:51;4.38;;;2.00;;
33104;SDS011;19476;51.448;6.674;2023-02-28T01:49:17;5.20;;;2.05;;
33104;SDS011;19476;51.448;6.674;2023-02-28T01:51:49;4.35;;;1.95;;
33104;SDS011;19476;51.448;6.674;2023-02-28T01:54:18;3.92;;;1.75;;
33104;SDS011;19476;51.448;6.674;2023-02-28T01:56:57;4.65;;;1.73;;
33104;SDS011;19476;51.448;6.674;2023-02-28T01:59:36;3.67;;;1.48;;
33104;SDS011;19476;51.448;6.674;2023-02-28T02:02:03;4.90;;;1.67;;
33104;SDS011;19476;51.448;6.674;2023-02-28T02:04:34;5.00;;;1.85;;
33104;SDS011;19476;51.448;6.674;2023-02-28T02:07:07;4.82;;;2.10;;
33104;SDS011;19476;51.448;6.674;2023-02-28T02:09:33;4.18;;;1.85;;
33104;SDS011;19476;51.448;6.674;2023-02-28T02:11:59;3.58;;;1.70;;
33104;SDS011;19476;51.448;6.674;2023-02-28T02:17:15;3.08;;;1.75;;
33104;SDS011;19476;51.448;6.674;2023-02-28T02:23:02;5.38;;;2.00;;
33104;SDS011;19476;51.448;6.674;2023-02-28T02:25:50;4.57;;;2.03;;
33104;SDS011;19476;51.448;6.674;2023-02-28T02:36:45;4.25;;;2.00;;
33104;SDS011;19476;51.448;6.674;2023-02-28T02:42:19;6.15;;;2.17;;
33104;SDS011;19476;51.448;6.674;2023-02-28T02:44:51;4.55;;;1.80;;
33104;SDS011;19476;51.448;6.674;2023-02-28T02:47:26;4.43;;;1.92;;
33104;SDS011;19476;51.448;6.674;2023-02-28T02:49:55;4.22;;;1.67;;
33104;SDS011;19476;51.448;6.674;2023-02-28T02:52:28;4.00;;;2.20;;
33104;SDS011;19476;51.448;6.674;2023-02-28T02:55:00;4.22;;;2.15;;
33104;SDS011;19476;51.448;6.674;2023-02-28T02:58:13;4.57;;;1.70;;
33104;SDS011;19476;51.448;6.674;2023-02-28T03:00:18;6.65;;;2.25;;
33104;SDS011;19476;51.448;6.674;2023-02-28T03:02:48;3.92;;;1.77;;
33104;SDS011;19476;51.448;6.674;2023-02-28T03:05:28;4.03;;;1.98;;
33104;SDS011;19476;51.448;6.674;2023-02-28T03:07:59;5.03;;;2.25;;
33104;SDS011;19476;51.448;6.674;2023-02-28T03:10:29;3.92;;;1.95;;
33104;SDS011;19476;51.448;6.674;2023-02-28T03:13:38;4.65;;;2.28;;
33104;SDS011;19476;51.448;6.674;2023-02-28T03:19:25;4.53;;;1.92;;
33104;SDS011;19476;51.448;6.674;2023-02-28T03:25:07;4.23;;;1.87;;
33104;SDS011;19476;51.448;6.674;2023-02-28T03:28:00;4.70;;;1.90;;
33104;SDS011;19476;51.448;6.674;2023-02-28T03:36:04;5.00;;;2.20;;
33104;SDS011;19476;51.448;6.674;2023-02-28T03:38:51;5.28;;;2.20;;
33104;SDS011;19476;51.448;6.674;2023-02-28T03:41:20;5.13;;;1.80;;
33104;SDS011;19476;51.448;6.674;2023-02-28T03:44:03;3.05;;;1.52;;
33104;SDS011;19476;51.448;6.674;2023-02-28T03:46:40;6.18;;;1.30;;
33104;SDS011;19476;51.448;6.674;2023-02-28T03:49:22;2.88;;;1.10;;
33104;SDS011;19476;51.448;6.674;2023-02-28T03:51:51;3.72;;;1.60;;
33104;SDS011;19476;51.448;6.674;2023-02-28T03:54:20;4.07;;;1.55;;
33104;SDS011;19476;51.448;6.674;2023-02-28T03:56:53;4.97;;;1.50;;
33104;SDS011;19476;51.448;6.674;2023-02-28T03:59:44;3.22;;;1.40;;
33104;SDS011;19476;51.448;6.674;2023-02-28T04:02:13;5.50;;;1.33;;
33104;SDS011;19476;51.448;6.674;2023-02-28T04:04:39;2.90;;;1.40;;
33104;SDS011;19476;51.448;6.674;2023-02-28T04:07:10;4.47;;;1.95;;
33104;SDS011;19476;51.448;6.674;2023-02-28T04:09:36;2.65;;;1.50;;
33104;SDS011;19476;51.448;6.674;2023-02-28T04:12:02;2.55;;;1.25;;
33104;SDS011;19476;51.448;6.674;2023-02-28T04:14:28;3.05;;;1.50;;
33104;SDS011;19476;51.448;6.674;2023-02-28T04:16:54;2.15;;;1.40;;
33104;SDS011;19476;51.448;6.674;2023-02-28T04:19:20;3.03;;;1.25;;
33104;SDS011;19476;51.448;6.674;2023-02-28T04:21:50;3.40;;;1.85;;
33104;SDS011;19476;51.448;6.674;2023-02-28T04:24:19;3.08;;;1.67;;
33104;SDS011;19476;51.448;6.674;2023-02-28T04:26:48;5.13;;;1.75;;
33104;SDS011;19476;51.448;6.674;2023-02-28T04:29:23;2.80;;;1.35;;
33104;SDS011;19476;51.448;6.674;2023-02-28T04:31:53;4.10;;;1.80;;
33104;SDS011;19476;51.448;6.674;2023-02-28T04:34:21;2.85;;;1.20;;
33104;SDS011;19476;51.448;6.674;2023-02-28T04:36:47;2.88;;;1.50;;
33104;SDS011;19476;51.448;6.674;2023-02-28T04:39:16;4.55;;;1.65;;
33104;SDS011;19476;51.448;6.674;2023-02-28T04:41:43;3.90;;;1.77;;
33104;SDS011;19476;51.448;6.674;2023-02-28T04:44:09;2.70;;;1.52;;
33104;SDS011;19476;51.448;6.674;2023-02-28T04:46:36;2.70;;;1.00;;
33104;SDS011;19476;51.448;6.674;2023-02-28T04:49:02;2.03;;;1.27;;
33104;SDS011;19476;51.448;6.674;2023-02-28T04:51:28;3.58;;;1.65;;
33104;SDS011;19476;51.448;6.674;2023-02-28T04:53:54;5.40;;;1.85;;
33104;SDS011;19476;51.448;6.674;2023-02-28T04:56:20;3.80;;;1.52;;
33104;SDS011;19476;51.448;6.674;2023-02-28T04:58:46;3.00;;;1.30;;
33104;SDS011;19476;51.448;6.674;2023-02-28T05:03:41;3.08;;;1.10;;
33104;SDS011;19476;51.448;6.674;2023-02-28T05:06:08;3.10;;;1.25;;
33104;SDS011;19476;51.448;6.674;2023-02-28T05:08:35;3.55;;;1.55;;
33104;SDS011;19476;51.448;6.674;2023-02-28T05:11:01;4.88;;;1.88;;
33104;SDS011;19476;51.448;6.674;2023-02-28T05:13:27;5.93;;;1.50;;
33104;SDS011;19476;51.448;6.674;2023-02-28T05:15:54;2.70;;;1.40;;
33104;SDS011;19476;51.448;6.674;2023-02-28T05:18:20;3.47;;;1.40;;
33104;SDS011;19476;51.448;6.674;2023-02-28T05:20:45;4.13;;;1.50;;
33104;SDS011;19476;51.448;6.674;2023-02-28T05:23:12;3.65;;;1.52;;
33104;SDS011;19476;51.448;6.674;2023-02-28T05:25:39;2.47;;;1.30;;
33104;SDS011;19476;51.448;6.674;2023-02-28T05:28:05;3.00;;;1.55;;
33104;SDS011;19476;51.448;6.674;2023-02-28T05:30:31;2.95;;;1.30;;
33104;SDS011;19476;51.448;6.674;2023-02-28T05:32:57;3.03;;;1.42;;
33104;SDS011;19476;51.448;6.674;2023-02-28T05:35:24;2.05;;;1.20;;
33104;SDS011;19476;51.448;6.674;2023-02-28T05:37:51;2.38;;;1.10;;
33104;SDS011;19476;51.448;6.674;2023-02-28T05:40:17;4.53;;;1.55;;
33104;SDS011;19476;51.448;6.674;2023-02-28T05:42:45;3.03;;;1.40;;
33104;SDS011;19476;51.448;6.674;2023-02-28T05:45:11;3.22;;;1.50;;
33104;SDS011;19476;51.448;6.674;2023-02-28T05:47:37;4.28;;;1.63;;
33104;SDS011;19476;51.448;6.674;2023-02-28T05:50:04;5.90;;;2.00;;
33104;SDS011;19476;51.448;6.674;2023-02-28T05:52:30;3.97;;;1.75;;
33104;SDS011;19476;51.448;6.674;2023-02-28T05:54:56;3.22;;;1.77;;
33104;SDS011;19476;51.448;6.674;2023-02-28T05:57:22;4.38;;;1.83;;
33104;SDS011;19476;51.448;6.674;2023-02-28T05:59:49;3.67;;;1.60;;
33104;SDS011;19476;51.448;6.674;2023-02-28T06:02:15;2.90;;;1.27;;
33104;SDS011;19476;51.448;6.674;2023-02-28T06:04:42;2.95;;;1.83;;
33104;SDS011;19476;51.448;6.674;2023-02-28T06:07:09;3.33;;;1.75;;
33104;SDS011;19476;51.448;6.674;2023-02-28T06:09:35;3.60;;;1.23;;
33104;SDS011;19476;51.448;6.674;2023-02-28T06:12:02;3.63;;;1.40;;
33104;SDS011;19476;51.448;6.674;2023-02-28T06:14:31;3.65;;;1.75;;
33104;SDS011;19476;51.448;6.674;2023-02-28T06:16:59;2.72;;;1.40;;
33104;SDS011;19476;51.448;6.674;2023-02-28T06:19:25;2.70;;;1.50;;
33104;SDS011;19476;51.448;6.674;2023-02-28T06:21:52;2.75;;;1.38;;
33104;SDS011;19476;51.448;6.674;2023-02-28T06:24:19;2.30;;;1.10;;
33104;SDS011;19476;51.448;6.674;2023-02-28T06:26:49;4.50;;;1.27;;
33104;SDS011;19476;51.448;6.674;2023-02-28T06:29:15;2.97;;;1.45;;
33104;SDS011;19476;51.448;6.674;2023-02-28T06:31:44;3.88;;;1.52;;
33104;SDS011;19476;51.448;6.674;2023-02-28T06:34:10;3.63;;;1.65;;
33104;SDS011;19476;51.448;6.674;2023-02-28T06:36:37;3.63;;;1.63;;
33104;SDS011;19476;51.448;6.674;2023-02-28T06:39:04;4.90;;;1.73;;
33104;SDS011;19476;51.448;6.674;2023-02-28T06:41:30;4.40;;;1.80;;
33104;SDS011;19476;51.448;6.674;2023-02-28T06:43:56;4.43;;;1.95;;
33104;SDS011;19476;51.448;6.674;2023-02-28T06:46:22;3.10;;;1.67;;
33104;SDS011;19476;51.448;6.674;2023-02-28T06:48:48;4.78;;;1.75;;
33104;SDS011;19476;51.448;6.674;2023-02-28T06:51:16;4.65;;;1.80;;
33104;SDS011;19476;51.448;6.674;2023-02-28T06:53:45;4.78;;;1.50;;
33104;SDS011;19476;51.448;6.674;2023-02-28T06:56:12;5.07;;;2.30;;
33104;SDS011;19476;51.448;6.674;2023-02-28T06:58:39;5.45;;;2.33;;
33104;SDS011;19476;51.448;6.674;2023-02-28T07:01:06;5.70;;;2.20;;
33104;SDS011;19476;51.448;6.674;2023-02-28T07:03:34;6.95;;;2.20;;
33104;SDS011;19476;51.448;6.674;2023-02-28T07:06:00;4.45;;;2.35;;
33104;SDS011;19476;51.448;6.674;2023-02-28T07:08:27;4.45;;;2.10;;
33104;SDS011;19476;51.448;6.674;2023-02-28T07:10:54;6.40;;;2.15;;
33104;SDS011;19476;51.448;6.674;2023-02-28T07:13:20;4.72;;;2.03;;
33104;SDS011;19476;51.448;6.674;2023-02-28T07:15:53;5.88;;;2.63;;
33104;SDS011;19476;51.448;6.674;2023-02-28T07:18:21;5.97;;;2.35;;
33104;SDS011;19476;51.448;6.674;2023-02-28T07:20:48;7.03;;;2.50;;
33104;SDS011;19476;51.448;6.674;2023-02-28T07:23:14;4.93;;;1.63;;
33104;SDS011;19476;51.448;6.674;2023-02-28T07:25:39;5.18;;;2.35;;
33104;SDS011;19476;51.448;6.674;2023-02-28T07:28:05;4.68;;;1.90;;
33104;SDS011;19476;51.448;6.674;2023-02-28T07:30:31;5.10;;;2.08;;
33104;SDS011;19476;51.448;6.674;2023-02-28T07:32:57;6.28;;;2.42;;
33104;SDS011;19476;51.448;6.674;2023-02-28T07:35:23;6.28;;;2.03;;
33104;SDS011;19476;51.448;6.674;2023-02-28T07:37:49;4.70;;;2.30;;
33104;SDS011;19476;51.448;6.674;2023-02-28T07:40:15;5.65;;;2.15;;
33104;SDS011;19476;51.448;6.674;2023-02-28T07:42:43;3.60;;;1.85;;
33104;SDS011;19476;51.448;6.674;2023-02-28T07:45:09;5.28;;;2.60;;
33104;SDS011;19476;51.448;6.674;2023-02-28T07:47:39;7.97;;;3.13;;
33104;SDS011;19476;51.448;6.674;2023-02-28T07:50:06;6.78;;;3.10;;
33104;SDS011;19476;51.448;6.674;2023-02-28T07:52:33;5.97;;;2.45;;
33104;SDS011;19476;51.448;6.674;2023-02-28T07:54:59;4.22;;;2.25;;
33104;SDS011;19476;51.448;6.674;2023-02-28T07:57:25;7.00;;;2.22;;
33104;SDS011;19476;51.448;6.674;2023-02-28T07:59:51;5.53;;;2.30;;
33104;SDS011;19476;51.448;6.674;2023-02-28T08:02:17;5.35;;;2.53;;
33104;SDS011;19476;51.448;6.674;2023-02-28T08:04:43;6.30;;;3.00;;
33104;SDS011;19476;51.448;6.674;2023-02-28T08:07:09;5.85;;;2.42;;
33104;SDS011;19476;51.448;6.674;2023-02-28T08:09:38;6.70;;;2.20;;
33104;SDS011;19476;51.448;6.674;2023-02-28T08:12:05;6.65;;;2.63;;
33104;SDS011;19476;51.448;6.674;2023-02-28T08:14:32;7.43;;;2.50;;
33104;SDS011;19476;51.448;6.674;2023-02-28T08:16:58;6.32;;;2.80;;
33104;SDS011;19476;51.448;6.674;2023-02-28T08:19:24;6.25;;;2.50;;
33104;SDS011;19476;51.448;6.674;2023-02-28T08:21:50;5.28;;;2.60;;
33104;SDS011;19476;51.448;6.674;2023-02-28T08:24:16;4.90;;;2.47;;
33104;SDS011;19476;51.448;6.674;2023-02-28T08:26:42;5.38;;;2.35;;
33104;SDS011;19476;51.448;6.674;2023-02-28T08:29:08;5.93;;;1.98;;
33104;SDS011;19476;51.448;6.674;2023-02-28T08:31:34;8.32;;;2.60;;
33104;SDS011;19476;51.448;6.674;2023-02-28T08:34:04;4.47;;;2.53;;
33104;SDS011;19476;51.448;6.674;2023-02-28T08:36:40;5.25;;;2.33;;
33104;SDS011;19476;51.448;6.674;2023-02-28T08:39:07;4.18;;;1.98;;
33104;SDS011;19476;51.448;6.674;2023-02-28T08:41:33;6.47;;;1.95;;
33104;SDS011;19476;51.448;6.674;2023-02-28T08:43:59;4.13;;;2.00;;
33104;SDS011;19476;51.448;6.674;2023-02-28T08:46:25;4.22;;;1.90;;
33104;SDS011;19476;51.448;6.674;2023-02-28T08:48:52;3.15;;;1.73;;
33104;SDS011;19476;51.448;6.674;2023-02-28T08:51:19;4.43;;;1.92;;
33104;SDS011;19476;51.448;6.674;2023-02-28T08:53:57;4.35;;;1.80;;
33104;SDS011;19476;51.448;6.674;2023-02-28T08:56:27;7.75;;;1.90;;
33104;SDS011;19476;51.448;6.674;2023-02-28T08:58:54;3.38;;;1.30;;
33104;SDS011;19476;51.448;6.674;2023-02-28T09:01:23;2.95;;;1.30;;
33104;SDS011;19476;51.448;6.674;2023-02-28T09:06:18;2.58;;;1.42;;
33104;SDS011;19476;51.448;6.674;2023-02-28T09:08:45;3.03;;;1.20;;
33104;SDS011;19476;51.448;6.674;2023-02-28T09:11:11;3.63;;;1.55;;
33104;SDS011;19476;51.448;6.674;2023-02-28T09:13:37;3.83;;;1.65;;
33104;SDS011;19476;51.448;6.674;2023-02-28T09:16:04;5.25;;;1.40;;
33104;SDS011;19476;51.448;6.674;2023-02-28T09:18:33;3.53;;;1.70;;
33104;SDS011;19476;51.448;6.674;2023-02-28T09:21:07;3.47;;;1.30;;
33104;SDS011;19476;51.448;6.674;2023-02-28T09:23:35;3.20;;;1.55;;
33104;SDS011;19476;51.448;6.674;2023-02-28T09:26:03;3.22;;;1.52;;
33104;SDS011;19476;51.448;6.674;2023-02-28T09:28:30;3.03;;;1.15;;
33104;SDS011;19476;51.448;6.674;2023-02-28T09:30:56;2.33;;;1.33;;
33104;SDS011;19476;51.448;6.674;2023-02-28T09:33:23;3.17;;;1.00;;
33104;SDS011;19476;51.448;6.674;2023-02-28T09:35:50;3.30;;;1.20;;
33104;SDS011;19476;51.448;6.674;2023-02-28T09:38:22;2.20;;;1.15;;
33104;SDS011;19476;51.448;6.674;2023-02-28T09:40:53;2.03;;;0.82;;
33104;SDS011;19476;51.448;6.674;2023-02-28T09:43:22;2.20;;;1.10;;
33104;SDS011;19476;51.448;6.674;2023-02-28T09:48:24;2.55;;;1.00;;
33104;SDS011;19476;51.448;6.674;2023-02-28T09:51:12;4.93;;;1.02;;
33104;SDS011;19476;51.448;6.674;2023-02-28T09:53:51;3.42;;;1.20;;
33104;SDS011;19476;51.448;6.674;2023-02-28T09:56:20;3.15;;;1.10;;
33104;SDS011;19476;51.448;6.674;2023-02-28T09:59:04;2.10;;;1.00;;
33104;SDS011;19476;51.448;6.674;2023-02-28T10:04:56;2.05;;;0.93;;
33104;SDS011;19476;51.448;6.674;2023-02-28T10:10:35;2.22;;;1.00;;
33104;SDS011;19476;51.448;6.674;2023-02-28T10:16:07;1.73;;;0.88;;
33104;SDS011;19476;51.448;6.674;2023-02-28T10:18:50;2.58;;;0.95;;
33104;SDS011;19476;51.448;6.674;2023-02-28T10:24:15;1.98;;;0.80;;
33104;SDS011;19476;51.448;6.674;2023-02-28T10:26:52;1.77;;;0.70;;
33104;SDS011;19476;51.448;6.674;2023-02-28T10:29:24;2.83;;;0.90;;
33104;SDS011;19476;51.448;6.674;2023-02-28T10:31:51;2.10;;;1.00;;
33104;SDS011;19476;51.448;6.674;2023-02-28T10:34:17;1.10;;;0.73;;
33104;SDS011;19476;51.448;6.674;2023-02-28T10:43:23;2.10;;;0.75;;
33104;SDS011;19476;51.448;6.674;2023-02-28T10:45:53;1.52;;;0.80;;
33104;SDS011;19476;51.448;6.674;2023-02-28T10:48:37;2.47;;;0.85;;
33104;SDS011;19476;51.448;6.674;2023-02-28T10:51:14;4.70;;;1.20;;
33104;SDS011;19476;51.448;6.674;2023-02-28T10:58:49;2.45;;;0.88;;
33104;SDS011;19476;51.448;6.674;2023-02-28T11:03:47;2.40;;;0.65;;
33104;SDS011;19476;51.448;6.674;2023-02-28T11:06:26;1.95;;;0.90;;
33104;SDS011;19476;51.448;6.674;2023-02-28T11:08:56;2.25;;;1.13;;
33104;SDS011;19476;51.448;6.674;2023-02-28T11:11:43;3.53;;;0.90;;
33104;SDS011;19476;51.448;6.674;2023-02-28T11:14:17;1.95;;;1.00;;
33104;SDS011;19476;51.448;6.674;2023-02-28T11:16:47;2.75;;;1.20;;
33104;SDS011;19476;51.448;6.674;2023-02-28T11:19:25;6.50;;;1.60;;
33104;SDS011;19476;51.448;6.674;2023-02-28T11:25:30;2.45;;;1.08;;
33104;SDS011;19476;51.448;6.674;2023-02-28T11:28:02;3.25;;;1.08;;
33104;SDS011;19476;51.448;6.674;2023-02-28T11:30:33;2.63;;;1.20;;
33104;SDS011;19476;51.448;6.674;2023-02-28T11:33:21;3.90;;;0.95;;
33104;SDS011;19476;51.448;6.674;2023-02-28T11:35:55;4.03;;;1.10;;
33104;SDS011;19476;51.448;6.674;2023-02-28T11:38:26;1.83;;;0.95;;
33104;SDS011;19476;51.448;6.674;2023-02-28T11:43:28;5.03;;;1.00;;
33104;SDS011;19476;51.448;6.674;2023-02-28T11:47:06;1.60;;;0.70;;
33104;SDS011;19476;51.448;6.674;2023-02-28T11:52:01;1.92;;;0.80;;
33104;SDS011;19476;51.448;6.674;2023-02-28T12:05:50;1.02;;;0.60;;
33104;SDS011;19476;51.448;6.674;2023-02-28T12:09:23;2.08;;;0.93;;
33104;SDS011;19476;51.448;6.674;2023-02-28T12:20:26;2.42;;;0.80;;
33104;SDS011;19476;51.448;6.674;2023-02-28T12:23:15;2.92;;;1.13;;
33104;SDS011;19476;51.448;6.674;2023-02-28T12:28:37;2.70;;;0.98;;
33104;SDS011;19476;51.448;6.674;2023-02-28T12:34:06;3.90;;;1.40;;
33104;SDS011;19476;51.448;6.674;2023-02-28T12:36:37;2.45;;;1.15;;
33104;SDS011;19476;51.448;6.674;2023-02-28T12:42:22;2.97;;;1.23;;
33104;SDS011;19476;51.448;6.674;2023-02-28T12:44:40;2.53;;;1.08;;
33104;SDS011;19476;51.448;6.674;2023-02-28T12:49:47;2.25;;;0.95;;
33104;SDS011;19476;51.448;6.674;2023-02-28T12:52:23;2.05;;;1.25;;
33104;SDS011;19476;51.448;6.674;2023-02-28T12:55:21;3.35;;;0.98;;
33104;SDS011;19476;51.448;6.674;2023-02-28T13:09:39;2.15;;;1.10;;
33104;SDS011;19476;51.448;6.674;2023-02-28T13:12:12;2.25;;;1.25;;
33104;SDS011;19476;51.448;6.674;2023-02-28T13:14:39;2.63;;;1.23;;
33104;SDS011;19476;51.448;6.674;2023-02-28T13:22:18;2.10;;;1.10;;
33104;SDS011;19476;51.448;6.674;2023-02-28T13:24:57;4.15;;;1.38;;
33104;SDS011;19476;51.448;6.674;2023-02-28T13:29:57;3.60;;;1.38;;
33104;SDS011;19476;51.448;6.674;2023-02-28T13:32:31;2.00;;;1.23;;
33104;SDS011;19476;51.448;6.674;2023-02-28T13:39:55;2.72;;;1.00;;
33104;SDS011;19476;51.448;6.674;2023-02-28T13:42:23;2.00;;;1.00;;
33104;SDS011;19476;51.448;6.674;2023-02-28T13:47:30;2.28;;;1.30;;
33104;SDS011;19476;51.448;6.674;2023-02-28T14:07:04;3.47;;;1.58;;
33104;SDS011;19476;51.448;6.674;2023-02-28T14:09:38;3.55;;;1.77;;
33104;SDS011;19476;51.448;6.674;2023-02-28T14:14:56;2.72;;;1.50;;
33104;SDS011;19476;51.448;6.674;2023-02-28T14:17:22;1.95;;;1.35;;
33104;SDS011;19476;51.448;6.674;2023-02-28T14:19:49;3.20;;;1.50;;
33104;SDS011;19476;51.448;6.674;2023-02-28T14:38:25;1.75;;;1.05;;
33104;SDS011;19476;51.448;6.674;2023-02-28T14:40:56;2.40;;;1.25;;
33104;SDS011;19476;51.448;6.674;2023-02-28T14:43:26;2.40;;;1.50;;
33104;SDS011;19476;51.448;6.674;2023-02-28T14:46:00;4.95;;;1.70;;
33104;SDS011;19476;51.448;6.674;2023-02-28T14:48:27;2.55;;;1.35;;
33104;SDS011;19476;51.448;6.674;2023-02-28T14:50:55;3.22;;;1.48;;
33104;SDS011;19476;51.448;6.674;2023-02-28T14:53:23;3.15;;;1.50;;
33104;SDS011;19476;51.448;6.674;2023-02-28T14:55:53;3.38;;;1.40;;
33104;SDS011;19476;51.448;6.674;2023-02-28T14:58:29;2.35;;;1.23;;
33104;SDS011;19476;51.448;6.674;2023-02-28T15:01:00;2.97;;;1.27;;
33104;SDS011;19476;51.448;6.674;2023-02-28T15:06:00;3.20;;;1.30;;
33104;SDS011;19476;51.448;6.674;2023-02-28T15:08:29;2.80;;;1.30;;
33104;SDS011;19476;51.448;6.674;2023-02-28T15:11:13;3.47;;;1.40;;
33104;SDS011;19476;51.448;6.674;2023-02-28T15:13:51;1.70;;;1.10;;
33104;SDS011;19476;51.448;6.674;2023-02-28T15:16:21;2.40;;;1.23;;
33104;SDS011;19476;51.448;6.674;2023-02-28T15:19:02;2.80;;;1.50;;
33104;SDS011;19476;51.448;6.674;2023-02-28T15:21:32;2.03;;;1.40;;
33104;SDS011;19476;51.448;6.674;2023-02-28T15:26:59;3.03;;;1.38;;
33104;SDS011;19476;51.448;6.674;2023-02-28T15:29:28;3.83;;;1.08;;
33104;SDS011;19476;51.448;6.674;2023-02-28T15:32:04;2.97;;;1.30;;
33104;SDS011;19476;51.448;6.674;2023-02-28T15:34:35;2.97;;;1.23;;
33104;SDS011;19476;51.448;6.674;2023-02-28T15:37:28;2.45;;;1.33;;
33104;SDS011;19476;51.448;6.674;2023-02-28T15:40:10;3.03;;;1.40;;
33104;SDS011;19476;51.448;6.674;2023-02-28T15:42:39;3.03;;;1.60;;
33104;SDS011;19476;51.448;6.674;2023-02-28T15:45:26;2.65;;;1.45;;
33104;SDS011;19476;51.448;6.674;2023-02-28T15:47:54;2.30;;;1.40;;
33104;SDS011;19476;51.448;6.674;2023-02-28T15:50:21;2.15;;;1.30;;
33104;SDS011;19476;51.448;6.674;2023-02-28T15:52:46;1.80;;;1.20;;
33104;SDS011;19476;51.448;6.674;2023-02-28T15:55:19;2.45;;;1.42;;
33104;SDS011;19476;51.448;6.674;2023-02-28T15:57:51;3.30;;;1.30;;
33104;SDS011;19476;51.448;6.674;2023-02-28T16:00:20;2.47;;;1.10;;
33104;SDS011;19476;51.448;6.674;2023-02-28T16:02:47;2.67;;;1.52;;
33104;SDS011;19476;51.448;6.674;2023-02-28T16:05:21;2.88;;;1.48;;
33104;SDS011;19476;51.448;6.674;2023-02-28T16:07:53;2.75;;;1.30;;
33104;SDS011;19476;51.448;6.674;2023-02-28T16:10:20;2.53;;;1.40;;
33104;SDS011;19476;51.448;6.674;2023-02-28T16:12:50;2.33;;;1.10;;
33104;SDS011;19476;51.448;6.674;2023-02-28T16:15:22;2.75;;;1.50;;
33104;SDS011;19476;51.448;6.674;2023-02-28T16:17:51;2.05;;;1.13;;
33104;SDS011;19476;51.448;6.674;2023-02-28T16:20:21;2.58;;;1.23;;
33104;SDS011;19476;51.448;6.674;2023-02-28T16:22:49;2.30;;;1.13;;
33104;SDS011;19476;51.448;6.674;2023-02-28T16:25:16;3.63;;;1.33;;
33104;SDS011;19476;51.448;6.674;2023-02-28T16:27:45;3.50;;;1.33;;
33104;SDS011;19476;51.448;6.674;2023-02-28T16:30:20;2.63;;;1.45;;
33104;SDS011;19476;51.448;6.674;2023-02-28T16:32:48;3.33;;;1.50;;
33104;SDS011;19476;51.448;6.674;2023-02-28T16:35:15;2.47;;;1.20;;
33104;SDS011;19476;51.448;6.674;2023-02-28T16:37:41;4.10;;;1.73;;
33104;SDS011;19476;51.448;6.674;2023-02-28T16:40:09;2.85;;;1.27;;
33104;SDS011;19476;51.448;6.674;2023-02-28T16:42:41;2.33;;;1.27;;
33104;SDS011;19476;51.448;6.674;2023-02-28T16:45:14;2.25;;;1.13;;
33104;SDS011;19476;51.448;6.674;2023-02-28T16:47:45;2.97;;;1.50;;
33104;SDS011;19476;51.448;6.674;2023-02-28T16:50:19;2.15;;;1.33;;
33104;SDS011;19476;51.448;6.674;2023-02-28T16:52:50;2.80;;;1.35;;
33104;SDS011;19476;51.448;6.674;2023-02-28T16:55:20;2.70;;;1.55;;
33104;SDS011;19476;51.448;6.674;2023-02-28T16:57:49;2.80;;;1.60;;
33104;SDS011;19476;51.448;6.674;2023-02-28T17:00:18;4.15;;;1.90;;
33104;SDS011;19476;51.448;6.674;2023-02-28T17:02:44;2.88;;;1.23;;
33104;SDS011;19476;51.448;6.674;2023-02-28T17:05:13;2.17;;;1.48;;
33104;SDS011;19476;51.448;6.674;2023-02-28T17:07:40;2.47;;;1.20;;
33104;SDS011;19476;51.448;6.674;2023-02-28T17:12:42;2.70;;;1.20;;
33104;SDS011;19476;51.448;6.674;2023-02-28T17:15:08;4.00;;;1.90;;
33104;SDS011;19476;51.448;6.674;2023-02-28T17:17:36;2.05;;;1.30;;
33104;SDS011;19476;51.448;6.674;2023-02-28T17:20:02;2.63;;;1.45;;
33104;SDS011;19476;51.448;6.674;2023-02-28T17:22:28;2.25;;;1.30;;
33104;SDS011;19476;51.448;6.674;2023-02-28T17:24:54;2.67;;;1.30;;
33104;SDS011;19476;51.448;6.674;2023-02-28T17:27:23;2.88;;;1.45;;
33104;SDS011;19476;51.448;6.674;2023-02-28T17:29:50;2.80;;;1.80;;
33104;SDS011;19476;51.448;6.674;2023-02-28T17:32:16;4.55;;;1.88;;
33104;SDS011;19476;51.448;6.674;2023-02-28T17:34:42;2.00;;;1.33;;
33104;SDS011;19476;51.448;6.674;2023-02-28T17:37:09;3.40;;;1.73;;
33104;SDS011;19476;51.448;6.674;2023-02-28T17:39:35;2.92;;;1.50;;
33104;SDS011;19476;51.448;6.674;2023-02-28T17:42:01;3.47;;;1.92;;
33104;SDS011;19476;51.448;6.674;2023-02-28T17:44:27;2.47;;;1.40;;
33104;SDS011;19476;51.448;6.674;2023-02-28T17:46:53;2.83;;;1.80;;
33104;SDS011;19476;51.448;6.674;2023-02-28T17:49:19;4.65;;;2.08;;
33104;SDS011;19476;51.448;6.674;2023-02-28T17:51:46;4.30;;;1.90;;
33104;SDS011;19476;51.448;6.674;2023-02-28T17:54:13;3.08;;;1.67;;
33104;SDS011;19476;51.448;6.674;2023-02-28T17:56:39;2.80;;;1.48;;
33104;SDS011;19476;51.448;6.674;2023-02-28T17:59:08;4.80;;;2.25;;
33104;SDS011;19476;51.448;6.674;2023-02-28T18:01:35;3.95;;;2.05;;